地図

経路データ

SID SEASON NUMBER BASIN SUBBASIN NAME ISO_TIME NATURE LAT LON WMO_WIND WMO_PRES WMO_AGENCY TRACK_TYPE DIST2LAND LANDFALL IFLAG USA_AGENCY USA_ATCF_ID USA_LAT USA_LON USA_RECORD USA_STATUS USA_WIND USA_PRES USA_SSHS USA_R34_NE USA_R34_SE USA_R34_SW USA_R34_NW USA_R50_NE USA_R50_SE USA_R50_SW USA_R50_NW USA_R64_NE USA_R64_SE USA_R64_SW USA_R64_NW USA_POCI USA_ROCI USA_RMW USA_EYE TOKYO_LAT TOKYO_LON TOKYO_GRADE TOKYO_WIND TOKYO_PRES TOKYO_R50_DIR TOKYO_R50_LONG TOKYO_R50_SHORT TOKYO_R30_DIR TOKYO_R30_LONG TOKYO_R30_SHORT TOKYO_LAND CMA_LAT CMA_LON CMA_CAT CMA_WIND CMA_PRES HKO_LAT HKO_LON HKO_CAT HKO_WIND HKO_PRES NEWDELHI_LAT NEWDELHI_LON NEWDELHI_GRADE NEWDELHI_WIND NEWDELHI_PRES NEWDELHI_CI NEWDELHI_DP NEWDELHI_POCI REUNION_LAT REUNION_LON REUNION_TYPE REUNION_WIND REUNION_PRES REUNION_TNUM REUNION_CI REUNION_RMW REUNION_R34_NE REUNION_R34_SE REUNION_R34_SW REUNION_R34_NW REUNION_R50_NE REUNION_R50_SE REUNION_R50_SW REUNION_R50_NW REUNION_R64_NE REUNION_R64_SE REUNION_R64_SW REUNION_R64_NW BOM_LAT BOM_LON BOM_TYPE BOM_WIND BOM_PRES BOM_TNUM BOM_CI BOM_RMW BOM_R34_NE BOM_R34_SE BOM_R34_SW BOM_R34_NW BOM_R50_NE BOM_R50_SE BOM_R50_SW BOM_R50_NW BOM_R64_NE BOM_R64_SE BOM_R64_SW BOM_R64_NW BOM_ROCI BOM_POCI BOM_EYE BOM_POS_METHOD BOM_PRES_METHOD NADI_LAT NADI_LON NADI_CAT NADI_WIND NADI_PRES WELLINGTON_LAT WELLINGTON_LON WELLINGTON_WIND WELLINGTON_PRES DS824_LAT DS824_LON DS824_STAGE DS824_WIND DS824_PRES TD9636_LAT TD9636_LON TD9636_STAGE TD9636_WIND TD9636_PRES TD9635_LAT TD9635_LON TD9635_WIND TD9635_PRES TD9635_ROCI NEUMANN_LAT NEUMANN_LON NEUMANN_CLASS NEUMANN_WIND NEUMANN_PRES MLC_LAT MLC_LON MLC_CLASS MLC_WIND MLC_PRES USA_GUST BOM_GUST BOM_GUST_PER REUNION_GUST REUNION_GUST_PER USA_SEAHGT USA_SEARAD_NE USA_SEARAD_SE USA_SEARAD_SW USA_SEARAD_NW STORM_SPEED STORM_DIR
1988251N13343 1988 72 NA NA NOT_NAMED 1988-09-07 00:00:00 TS 12.5000 -17.5000 25 1011 hurdat_atl main 76 76 O_____________ hurdat_atl AL061988 12.5000 -17.5000 TD 25 1011 -1 8 320
1988251N13343 1988 72 NA NA NOT_NAMED 1988-09-07 03:00:00 TS 12.7975 -17.7499 main 98 98 P_____________ AL061988 12.7975 -17.7499 TD 25 1011 -1 8 321
1988251N13343 1988 72 NA NA NOT_NAMED 1988-09-07 06:00:00 TS 13.1000 -18.0000 25 1011 hurdat_atl main 131 130 O_____________ hurdat_atl AL061988 13.1000 -18.0000 TD 25 1011 -1 8 322
1988251N13343 1988 72 NA NA NOT_NAMED 1988-09-07 09:00:00 TS 13.4200 -18.2501 main 162 147 P_____________ AL061988 13.4200 -18.2501 TD 30 1009 -1 9 325
1988251N13343 1988 72 NA NA NOT_NAMED 1988-09-07 12:00:00 TS 13.8000 -18.5000 35 1008 hurdat_atl main 147 140 O_____________ hurdat_atl AL061988 13.8000 -18.5000 TS 35 1008 0 10 330
1988251N13343 1988 72 NA NA NOT_NAMED 1988-09-07 15:00:00 TS 14.3150 -18.7798 main 147 143 P_____________ AL061988 14.3150 -18.7798 TS 35 1007 0 11 334
1988251N13343 1988 72 NA NA NOT_NAMED 1988-09-07 18:00:00 TS 14.8000 -19.0000 35 1007 hurdat_atl main 161 161 O_____________ hurdat_atl AL061988 14.8000 -19.0000 TS 35 1007 0 8 341
1988251N13343 1988 72 NA NA NOT_NAMED 1988-09-07 21:00:00 TS 15.0424 -19.0355 main 164 164 P_____________ AL061988 15.0424 -19.0355 TS 37 1006 0 5 349
1988251N13343 1988 72 NA NA NOT_NAMED 1988-09-08 00:00:00 TS 15.3000 -19.1000 40 1005 hurdat_atl main 184 184 O_____________ hurdat_atl AL061988 15.3000 -19.1000 TS 40 1005 0 8 335
1988251N13343 1988 72 NA NA NOT_NAMED 1988-09-08 03:00:00 TS 15.8051 -19.4048 main 238 238 P_____________ AL061988 15.8051 -19.4048 TS 40 1004 0 13 329
1988251N13343 1988 72 NA NA NOT_NAMED 1988-09-08 06:00:00 TS 16.4000 -19.8000 40 1003 hurdat_atl main 311 311 O_____________ hurdat_atl AL061988 16.4000 -19.8000 TS 40 1003 0 14 327
1988251N13343 1988 72 NA NA NOT_NAMED 1988-09-08 09:00:00 TS 16.9350 -20.1651 main 379 379 P_____________ AL061988 16.9350 -20.1651 TS 45 1002 0 13 329
1988251N13343 1988 72 NA NA NOT_NAMED 1988-09-08 12:00:00 TS 17.5000 -20.5000 50 1002 hurdat_atl main 447 447 O_____________ hurdat_atl AL061988 17.5000 -20.5000 TS 50 1002 0 13 335
1988251N13343 1988 72 NA NA NOT_NAMED 1988-09-08 15:00:00 TS 18.1499 -20.7578 main 475 461 P_____________ AL061988 18.1499 -20.7578 TS 50 1000 0 14 340
1988251N13343 1988 72 NA NA NOT_NAMED 1988-09-08 18:00:00 TS 18.8000 -21.0000 50 999 hurdat_atl main 465 459 O_____________ hurdat_atl AL061988 18.8000 -21.0000 TS 50 999 0 13 336
1988251N13343 1988 72 NA NA NOT_NAMED 1988-09-08 21:00:00 TS 19.3351 -21.3077 main 469 465 P_____________ AL061988 19.3351 -21.3077 TS 50 996 0 12 333
1988251N13343 1988 72 NA NA NOT_NAMED 1988-09-09 00:00:00 TS 19.9000 -21.6000 50 994 hurdat_atl main 479 477 O_____________ hurdat_atl AL061988 19.9000 -21.6000 TS 50 994 0 14 340
1988251N13343 1988 72 NA NA NOT_NAMED 1988-09-09 03:00:00 TS 20.6199 -21.8079 main 489 488 P_____________ AL061988 20.6199 -21.8079 TS 50 995 0 16 346
1988251N13343 1988 72 NA NA NOT_NAMED 1988-09-09 06:00:00 TS 21.4000 -22.0000 50 996 hurdat_atl main 512 512 O_____________ hurdat_atl AL061988 21.4000 -22.0000 TS 50 996 0 16 344
1988251N13343 1988 72 NA NA NOT_NAMED 1988-09-09 09:00:00 TS 22.1801 -22.2795 main 548 548 P_____________ AL061988 22.1801 -22.2795 TS 42 1000 0 16 343
1988251N13343 1988 72 NA NA NOT_NAMED 1988-09-09 12:00:00 TS 22.9000 -22.5000 35 1005 hurdat_atl main 578 578 O_____________ hurdat_atl AL061988 22.9000 -22.5000 TS 35 1005 0 13 351
1988251N13343 1988 72 NA NA NOT_NAMED 1988-09-09 15:00:00 TS 23.4874 -22.5010 main 595 595 P_____________ AL061988 23.4874 -22.5010 TS 30 1005 -1 11 360
1988251N13343 1988 72 NA NA NOT_NAMED 1988-09-09 18:00:00 TS 24.0000 -22.5000 25 1006 hurdat_atl main 614 614 O_____________ hurdat_atl AL061988 24.0000 -22.5000 TD 25 1006 -1 10 351
1988251N13343 1988 72 NA NA NOT_NAMED 1988-09-09 21:00:00 TS 24.5002 -22.6864 main 654 654 P_____________ AL061988 24.5002 -22.6864 TD 25 1007 -1 11 336
1988251N13343 1988 72 NA NA NOT_NAMED 1988-09-10 00:00:00 TS 25.0000 -23.0000 25 1009 hurdat_atl main 704 O_____________ hurdat_atl AL061988 25.0000 -23.0000 TD 25 1009 -1 12 330

IBTrACS Databaseについて

本データベースは、米国NOAAが公開する1842年以降の世界の熱帯低気圧のベストトラックデータアーカイブInternational Best Track Archive for Climate Stewardship (IBTrACS)を、ウェブで閲覧しやすい形式に変換したものです。

最終更新日:2021-10-21